Time;durP1;ratioP1;P1;durP2;ratioP2;P2;SDS_P1;SDS_P2;PMS_P1;PMS_P2;Temp;Humidity;BMP_temperature;BMP_pressure;BME280_temperature;BME280_humidity;BME280_pressure;Samples;Min_cycle;Max_cycle;Signal;HPM_P1;HPM_P2
2022/10/26 00:01:26;;;;;;;;;;;14.50;99.90;;;;;;5013411;28;19956;-81
2022/10/26 00:03:53;;;;;;;;;;;14.50;99.90;;;;;;5013359;28;19910;-81
2022/10/26 00:06:20;;;;;;;;;;;14.50;99.90;;;;;;5011639;28;19917;-81
2022/10/26 00:08:46;;;;;;;;;;;14.50;99.90;;;;;;5013322;28;19910;-81
2022/10/26 00:11:11;;;;;;;;;;;14.60;99.90;;;;;;5013049;28;19913;-81
2022/10/26 00:13:37;;;;;;;;;;;14.60;99.90;;;;;;5013187;28;20288;-81
2022/10/26 00:16:10;;;;;;;;;;;14.60;99.90;;;;;;5011498;28;19910;-81
2022/10/26 00:18:36;;;;;;;;;;;14.60;99.90;;;;;;5013061;28;20000;-81
2022/10/26 00:21:03;;;;;;;;;;;14.60;99.90;;;;;;5011762;28;20388;-81
2022/10/26 00:23:28;;;;;;;;;;;14.70;99.90;;;;;;5011495;28;20285;-81
2022/10/26 00:25:55;;;;;;;;;;;14.70;99.90;;;;;;5012470;28;19985;-81
2022/10/26 00:28:20;;;;;;;;;;;14.70;99.90;;;;;;5011743;28;19913;-81
2022/10/26 00:30:46;;;;;;;;;;;14.70;99.90;;;;;;5012832;28;20292;-81
2022/10/26 00:33:12;;;;;;;;;;;14.70;99.90;;;;;;5012878;28;19956;-81
2022/10/26 00:35:37;;;;;;;;;;;14.70;99.90;;;;;;5012606;28;19909;-80
2022/10/26 00:38:03;;;;;;;;;;;14.70;99.90;;;;;;5013253;28;19968;-81
2022/10/26 00:40:28;;;;;;;;;;;14.70;99.90;;;;;;5012032;28;19972;-81
2022/10/26 00:42:54;;;;;;;;;;;14.80;99.90;;;;;;5011569;28;19913;-81
2022/10/26 00:45:26;;;;;;;;;;;14.70;99.90;;;;;;5012661;28;19914;-81
2022/10/26 00:47:54;;;;;;;;;;;14.70;99.90;;;;;;5011382;28;20332;-81
2022/10/26 00:50:23;;;;;;;;;;;14.70;99.90;;;;;;5011511;28;19914;-81
2022/10/26 00:52:50;;;;;;;;;;;14.70;99.90;;;;;;5012829;28;19916;-81
2022/10/26 00:55:20;;;;;;;;;;;14.70;99.90;;;;;;5011363;28;20437;-81
2022/10/26 00:57:45;;;;;;;;;;;14.70;99.90;;;;;;5012550;28;19968;-81
2022/10/26 01:00:11;;;;;;;;;;;14.70;99.90;;;;;;5012667;28;19910;-81
2022/10/26 01:02:36;;;;;;;;;;;14.80;99.90;;;;;;5012550;28;20381;-81
2022/10/26 01:05:03;;;;;;;;;;;14.70;99.90;;;;;;5012620;28;20336;-81
2022/10/26 01:07:29;;;;;;;;;;;14.70;99.90;;;;;;5012123;28;20011;-81
2022/10/26 01:09:55;;;;;;;;;;;14.70;99.90;;;;;;5012464;28;19953;-80
2022/10/26 01:12:20;;;;;;;;;;;14.80;99.90;;;;;;5011565;28;19980;-81
2022/10/26 01:14:46;;;;;;;;;;;14.80;99.90;;;;;;5012455;28;19941;-81
2022/10/26 01:17:26;;;;;;;;;;;14.80;99.90;;;;;;5012182;28;19916;-81
2022/10/26 01:19:52;;;;;;;;;;;14.80;99.90;;;;;;5011161;28;19910;-82
2022/10/26 01:22:23;;;;;;;;;;;14.80;99.90;;;;;;5012462;28;19944;-81
2022/10/26 01:25:07;;;;;;;;;;;14.80;99.90;;;;;;5012151;28;19972;-81
2022/10/26 01:27:35;;;;;;;;;;;14.80;99.90;;;;;;5010883;28;19910;-81
2022/10/26 01:30:10;;;;;;;;;;;14.80;99.90;;;;;;5012172;28;19918;-81
2022/10/26 01:32:55;;;;;;;;;;;14.80;99.90;;;;;;5012337;28;19910;-81
2022/10/26 01:35:40;;;;;;;;;;;14.90;99.90;;;;;;5010335;28;19909;-80
2022/10/26 01:38:09;;;;;;;;;;;14.80;99.90;;;;;;5015005;28;20273;-81
2022/10/26 01:40:40;;;;;;;;;;;14.80;99.90;;;;;;5015994;28;19968;-81
2022/10/26 01:43:07;;;;;;;;;;;14.80;99.90;;;;;;5015907;28;19910;-81
2022/10/26 01:45:33;;;;;;;;;;;14.80;99.90;;;;;;5015516;28;20264;-82
2022/10/26 01:47:59;;;;;;;;;;;14.90;99.90;;;;;;5014682;28;19913;-80
2022/10/26 01:50:26;;;;;;;;;;;14.90;99.90;;;;;;5015817;28;19913;-81
2022/10/26 01:52:51;;;;;;;;;;;14.90;99.90;;;;;;5015763;28;19910;-81
2022/10/26 01:55:32;;;;;;;;;;;14.90;99.90;;;;;;4998138;28;20104;-81
2022/10/26 01:58:01;;;;;;;;;;;15.00;99.90;;;;;;5013933;28;19956;-81
2022/10/26 02:00:28;;;;;;;;;;;14.90;99.90;;;;;;5014161;28;19917;-82
2022/10/26 02:02:54;;;;;;;;;;;15.00;99.90;;;;;;5014310;28;19909;-80
2022/10/26 02:05:28;;;;;;;;;;;15.00;99.90;;;;;;5015353;28;20321;-81
2022/10/26 02:08:00;;;;;;;;;;;15.00;99.90;;;;;;5015423;28;20004;-81
2022/10/26 02:10:33;;;;;;;;;;;15.00;99.90;;;;;;5015401;28;19976;-81
2022/10/26 02:12:59;;;;;;;;;;;15.00;99.90;;;;;;5014172;28;20261;-81
2022/10/26 02:15:46;;;;;;;;;;;15.00;99.90;;;;;;5015035;28;19996;-81
2022/10/26 02:18:31;;;;;;;;;;;15.00;99.90;;;;;;4997657;28;19912;-81
2022/10/26 02:20:59;;;;;;;;;;;15.00;99.90;;;;;;5015368;28;19909;-80
2022/10/26 02:23:26;;;;;;;;;;;15.00;99.90;;;;;;5014953;28;19913;-81
2022/10/26 02:25:55;;;;;;;;;;;15.00;99.90;;;;;;5014979;28;19967;-81
2022/10/26 02:28:24;;;;;;;;;;;14.90;99.90;;;;;;4997622;28;19910;-81
2022/10/26 02:30:52;;;;;;;;;;;15.00;99.90;;;;;;5015082;28;19918;-81
2022/10/26 02:33:18;;;;;;;;;;;15.00;99.90;;;;;;5015080;28;19969;-81
2022/10/26 02:35:46;;;;;;;;;;;15.00;99.90;;;;;;5013360;28;19952;-80
2022/10/26 02:38:12;;;;;;;;;;;15.00;99.90;;;;;;5014860;28;20003;-81
2022/10/26 02:40:38;;;;;;;;;;;15.00;99.90;;;;;;5015007;28;19960;-81
2022/10/26 02:43:09;;;;;;;;;;;15.00;99.90;;;;;;5013632;28;19914;-82
2022/10/26 02:45:42;;;;;;;;;;;15.00;99.90;;;;;;5014519;28;19914;-81
2022/10/26 02:48:07;;;;;;;;;;;15.10;99.90;;;;;;5014483;28;20262;-81
2022/10/26 02:51:02;;;;;;;;;;;15.10;99.90;;;;;;5014566;28;19921;-81
2022/10/26 02:53:37;;;;;;;;;;;15.10;99.90;;;;;;5005917;28;19909;-81
2022/10/26 02:56:06;;;;;;;;;;;15.10;99.90;;;;;;5012904;28;20477;-81
2022/10/26 02:58:35;;;;;;;;;;;15.10;99.90;;;;;;5014522;28;19910;-81
2022/10/26 03:01:01;;;;;;;;;;;15.10;99.90;;;;;;4997070;28;19916;-81
2022/10/26 03:03:26;;;;;;;;;;;15.10;99.90;;;;;;5013289;28;20012;-81
2022/10/26 03:05:52;;;;;;;;;;;15.00;99.90;;;;;;5013932;28;19917;-82
2022/10/26 03:08:17;;;;;;;;;;;15.00;99.90;;;;;;5014345;28;19964;-81
2022/10/26 03:10:43;;;;;;;;;;;15.00;99.90;;;;;;5013224;28;19925;-82
2022/10/26 03:13:10;;;;;;;;;;;15.00;99.90;;;;;;5014379;28;19960;-81
2022/10/26 03:15:35;;;;;;;;;;;15.00;99.90;;;;;;5013880;28;19963;-81
2022/10/26 03:18:01;;;;;;;;;;;15.00;99.90;;;;;;5012953;28;20293;-81
2022/10/26 03:20:27;;;;;;;;;;;15.00;99.90;;;;;;5012982;28;19916;-81
2022/10/26 03:22:53;;;;;;;;;;;15.10;99.90;;;;;;5012946;28;19964;-81
2022/10/26 03:25:18;;;;;;;;;;;15.10;99.90;;;;;;5012880;28;19909;-82
2022/10/26 03:27:44;;;;;;;;;;;15.10;99.90;;;;;;5012446;28;20396;-81
2022/10/26 03:30:09;;;;;;;;;;;15.10;99.90;;;;;;4996393;28;20008;-81
2022/10/26 03:32:35;;;;;;;;;;;15.10;99.90;;;;;;5013917;28;19931;-81
2022/10/26 03:35:00;;;;;;;;;;;15.20;99.90;;;;;;5013885;28;20284;-81
2022/10/26 03:37:26;;;;;;;;;;;15.10;99.90;;;;;;4995695;28;19916;-81
2022/10/26 03:39:51;;;;;;;;;;;15.20;99.90;;;;;;5013814;28;19913;-81
2022/10/26 03:42:17;;;;;;;;;;;15.20;99.90;;;;;;5013834;28;19909;-81
2022/10/26 03:44:42;;;;;;;;;;;15.30;99.90;;;;;;5012523;28;20336;-81
2022/10/26 03:47:08;;;;;;;;;;;15.30;99.90;;;;;;5013324;28;20004;-81
2022/10/26 03:49:34;;;;;;;;;;;15.40;99.90;;;;;;5013682;28;20384;-81
2022/10/26 03:52:00;;;;;;;;;;;15.30;99.90;;;;;;5013490;28;19948;-81
2022/10/26 03:54:25;;;;;;;;;;;15.40;99.90;;;;;;5012359;28;20533;-81
2022/10/26 03:56:51;;;;;;;;;;;15.40;99.90;;;;;;5013118;28;19949;-81
2022/10/26 03:59:17;;;;;;;;;;;15.40;99.90;;;;;;5011525;28;19959;-81
2022/10/26 04:01:43;;;;;;;;;;;15.50;99.90;;;;;;5013452;28;19913;-82
2022/10/26 04:04:08;;;;;;;;;;;15.50;99.90;;;;;;5013300;28;20277;-81
2022/10/26 04:06:33;;;;;;;;;;;15.50;99.90;;;;;;5067957;22;20548;-81
2022/10/26 04:09:01;;;;;;;;;;;15.50;99.90;;;;;;5093059;28;19912;-81
2022/10/26 04:11:28;;;;;;;;;;;15.50;99.90;;;;;;5074793;28;21538;-81
2022/10/26 04:13:54;;;;;;;;;;;15.50;99.90;;;;;;5093013;28;19954;-82
2022/10/26 04:16:20;;;;;;;;;;;15.50;99.90;;;;;;5092827;28;19912;-81
2022/10/26 04:18:46;;;;;;;;;;;15.40;99.90;;;;;;5092943;28;19908;-81
2022/10/26 04:21:11;;;;;;;;;;;15.40;99.90;;;;;;5092942;28;20416;-81
2022/10/26 04:23:37;;;;;;;;;;;15.40;99.90;;;;;;5092952;28;19931;-80
2022/10/26 04:26:03;;;;;;;;;;;15.40;99.90;;;;;;5074526;28;19912;-81
2022/10/26 04:28:29;;;;;;;;;;;15.40;99.90;;;;;;5093170;28;19915;-81
2022/10/26 04:30:54;;;;;;;;;;;15.40;99.90;;;;;;5092933;28;20022;-81
2022/10/26 04:33:20;;;;;;;;;;;15.40;99.90;;;;;;5074692;28;19915;-81
2022/10/26 04:35:46;;;;;;;;;;;15.40;99.90;;;;;;5092387;28;19937;-81
2022/10/26 04:38:12;;;;;;;;;;;15.40;99.90;;;;;;5074996;28;19915;-81
2022/10/26 04:40:38;;;;;;;;;;;15.40;99.90;;;;;;5092888;28;19908;-81
2022/10/26 04:43:03;;;;;;;;;;;15.40;99.90;;;;;;5092788;28;20268;-82
2022/10/26 04:45:29;;;;;;;;;;;15.40;99.90;;;;;;5092203;28;19912;-81
2022/10/26 04:47:59;;;;;;;;;;;15.40;99.90;;;;;;5092590;28;19912;-81
2022/10/26 04:50:24;;;;;;;;;;;15.40;99.90;;;;;;5074201;28;19919;-81
2022/10/26 04:52:50;;;;;;;;;;;15.40;99.90;;;;;;5092615;28;19953;-80
2022/10/26 04:55:16;;;;;;;;;;;15.40;99.90;;;;;;5092241;28;19915;-81
2022/10/26 04:57:43;;;;;;;;;;;15.40;99.90;;;;;;5092008;28;20314;-81
2022/10/26 05:00:09;;;;;;;;;;;15.40;99.90;;;;;;5092203;28;20426;-80
2022/10/26 05:02:34;;;;;;;;;;;15.40;99.90;;;;;;5092534;28;19959;-81
2022/10/26 05:04:59;;;;;;;;;;;15.50;99.90;;;;;;5092264;28;20424;-81
2022/10/26 05:07:25;;;;;;;;;;;15.50;99.90;;;;;;5091828;28;20327;-81
2022/10/26 05:09:50;;;;;;;;;;;15.50;99.90;;;;;;5092917;28;19908;-80
2022/10/26 05:12:16;;;;;;;;;;;15.50;99.90;;;;;;5080114;28;19912;-83
2022/10/26 05:14:41;;;;;;;;;;;15.50;99.90;;;;;;5101960;28;19908;-81
2022/10/26 05:17:07;;;;;;;;;;;15.50;99.90;;;;;;5096149;28;19916;-80
2022/10/26 05:19:32;;;;;;;;;;;15.50;99.90;;;;;;5078084;28;19908;-80
2022/10/26 05:21:58;;;;;;;;;;;15.50;99.90;;;;;;5096277;28;19908;-80
2022/10/26 05:24:23;;;;;;;;;;;15.60;99.90;;;;;;5078163;28;19915;-81
2022/10/26 05:26:49;;;;;;;;;;;15.60;99.90;;;;;;5095869;28;20287;-81
2022/10/26 05:29:14;;;;;;;;;;;15.60;99.90;;;;;;5077939;28;19912;-80
2022/10/26 05:31:40;;;;;;;;;;;15.70;99.90;;;;;;5096016;28;19912;-81
2022/10/26 05:34:05;;;;;;;;;;;15.70;99.90;;;;;;5077990;28;19954;-80
2022/10/26 05:36:31;;;;;;;;;;;15.70;99.90;;;;;;5095389;28;19947;-81
2022/10/26 05:38:57;;;;;;;;;;;15.80;99.90;;;;;;5095793;28;19908;-81
2022/10/26 05:41:22;;;;;;;;;;;15.80;99.90;;;;;;5095988;28;19912;-81
2022/10/26 05:43:48;;;;;;;;;;;15.80;99.90;;;;;;5095798;28;19908;-81
2022/10/26 05:46:13;;;;;;;;;;;15.90;99.90;;;;;;5077535;28;19908;-81
2022/10/26 05:48:39;;;;;;;;;;;15.90;99.90;;;;;;5077995;28;20384;-81
2022/10/26 05:51:04;;;;;;;;;;;16.00;99.90;;;;;;5095918;28;19916;-82
2022/10/26 05:53:30;;;;;;;;;;;16.00;99.90;;;;;;5095596;28;20367;-80
2022/10/26 05:55:55;;;;;;;;;;;15.90;99.90;;;;;;5077529;28;19915;-81
2022/10/26 05:58:21;;;;;;;;;;;16.00;99.90;;;;;;5095955;28;19908;-81
2022/10/26 06:00:49;;;;;;;;;;;16.00;99.90;;;;;;5095886;28;19908;-81
2022/10/26 06:03:23;;;;;;;;;;;16.00;99.90;;;;;;5095457;28;19967;-82
2022/10/26 06:05:55;;;;;;;;;;;15.90;99.90;;;;;;5095384;28;20002;-81
2022/10/26 06:08:22;;;;;;;;;;;15.90;99.90;;;;;;5095322;28;19956;-81
2022/10/26 06:10:48;;;;;;;;;;;15.80;99.90;;;;;;5077306;28;19912;-81
2022/10/26 06:13:13;;;;;;;;;;;15.80;99.90;;;;;;5077618;28;19908;-81
2022/10/26 06:16:01;;;;;;;;;;;15.80;99.90;;;;;;5077046;28;19908;-81
2022/10/26 06:18:34;;;;;;;;;;;15.80;99.90;;;;;;5095503;28;19915;-80
2022/10/26 06:21:05;;;;;;;;;;;15.90;99.90;;;;;;5095523;28;19908;-81
2022/10/26 06:23:46;;;;;;;;;;;15.80;99.90;;;;;;5094852;28;20286;-80
2022/10/26 06:26:38;;;;;;;;;;;15.90;99.90;;;;;;5095030;28;19912;-81
2022/10/26 06:29:10;;;;;;;;;;;15.90;99.90;;;;;;5056531;28;20041;-81
2022/10/26 06:31:35;;;;;;;;;;;15.80;99.90;;;;;;5076909;28;19912;-80
2022/10/26 06:34:01;;;;;;;;;;;15.80;99.90;;;;;;5094972;28;19915;-81
2022/10/26 06:36:27;;;;;;;;;;;15.80;99.90;;;;;;5094683;28;19908;-81
2022/10/26 06:39:00;;;;;;;;;;;15.80;99.90;;;;;;5094649;28;19915;-80
2022/10/26 06:41:26;;;;;;;;;;;15.80;99.90;;;;;;5076995;28;20363;-81
2022/10/26 06:43:52;;;;;;;;;;;15.80;99.90;;;;;;5095105;28;19991;-82
2022/10/26 06:46:17;;;;;;;;;;;15.80;99.90;;;;;;5094353;28;19962;-81
2022/10/26 06:48:45;;;;;;;;;;;15.60;99.90;;;;;;5094559;28;19912;-81
2022/10/26 06:51:13;;;;;;;;;;;15.50;99.90;;;;;;5076317;28;19912;-80
2022/10/26 06:53:44;;;;;;;;;;;15.50;99.90;;;;;;5094670;28;19946;-81
2022/10/26 06:56:10;;;;;;;;;;;15.40;99.90;;;;;;5075938;28;20286;-81
2022/10/26 06:58:36;;;;;;;;;;;15.40;99.90;;;;;;5094589;28;20367;-80
2022/10/26 07:01:02;;;;;;;;;;;15.30;99.90;;;;;;5094461;28;19908;-81
2022/10/26 07:03:27;;;;;;;;;;;15.30;99.90;;;;;;5096431;28;19916;-81
2022/10/26 07:05:53;;;;;;;;;;;15.20;99.90;;;;;;5076620;28;20002;-82
2022/10/26 07:08:18;;;;;;;;;;;15.20;99.90;;;;;;5076016;28;20272;-81
2022/10/26 07:10:45;;;;;;;;;;;15.30;99.90;;;;;;5076041;28;19916;-82
2022/10/26 07:13:10;;;;;;;;;;;15.30;99.90;;;;;;5075961;28;19908;-81
2022/10/26 07:15:37;;;;;;;;;;;15.40;99.90;;;;;;5094044;28;19934;-80
2022/10/26 07:18:04;;;;;;;;;;;15.50;99.90;;;;;;5094101;28;19908;-81
2022/10/26 07:20:30;;;;;;;;;;;15.60;99.90;;;;;;5094094;28;19973;-81
2022/10/26 07:22:56;;;;;;;;;;;15.70;99.90;;;;;;5094207;28;19908;-81
2022/10/26 07:25:22;;;;;;;;;;;15.80;99.90;;;;;;5075806;28;19908;-79
2022/10/26 07:27:48;;;;;;;;;;;15.90;99.90;;;;;;5075811;28;19908;-81
2022/10/26 07:30:13;;;;;;;;;;;15.90;99.90;;;;;;5094007;28;19961;-81
2022/10/26 07:32:39;;;;;;;;;;;15.90;99.90;;;;;;5075773;28;19914;-81
2022/10/26 07:35:04;;;;;;;;;;;15.90;99.90;;;;;;5093196;28;20402;-80
2022/10/26 07:37:30;;;;;;;;;;;15.90;99.90;;;;;;5093952;28;19916;-80
2022/10/26 07:39:55;;;;;;;;;;;15.80;99.90;;;;;;5093566;28;20581;-80
2022/10/26 07:42:21;;;;;;;;;;;15.70;99.90;;;;;;5093576;28;19916;-80
2022/10/26 07:44:46;;;;;;;;;;;15.60;99.90;;;;;;5086641;28;20287;-82
2022/10/26 07:47:12;;;;;;;;;;;15.60;99.90;;;;;;5050268;28;20003;-82
2022/10/26 07:49:37;;;;;;;;;;;15.50;99.90;;;;;;5071037;28;20284;-82
2022/10/26 07:52:03;;;;;;;;;;;15.60;99.90;;;;;;5070147;28;19918;-81
2022/10/26 07:54:28;;;;;;;;;;;15.50;99.90;;;;;;5094796;28;19954;-82
2022/10/26 07:56:54;;;;;;;;;;;15.50;99.90;;;;;;5075141;28;19946;-82
2022/10/26 07:59:19;;;;;;;;;;;15.50;99.90;;;;;;5059035;28;19928;-81
2022/10/26 08:01:45;;;;;;;;;;;15.70;99.90;;;;;;5087335;28;19938;-82
2022/10/26 08:04:10;;;;;;;;;;;15.70;99.90;;;;;;5075439;28;19909;-81
2022/10/26 08:06:36;;;;;;;;;;;15.80;99.90;;;;;;5092663;28;20015;-81
2022/10/26 08:09:01;;;;;;;;;;;15.80;99.90;;;;;;5092852;28;19915;-81
2022/10/26 08:11:27;;;;;;;;;;;15.90;99.90;;;;;;5093001;28;20423;-81
2022/10/26 08:13:53;;;;;;;;;;;16.00;99.90;;;;;;5093132;28;20260;-82
2022/10/26 08:16:19;;;;;;;;;;;16.10;99.90;;;;;;5092597;28;19958;-80
2022/10/26 08:18:48;;;;;;;;;;;16.20;99.90;;;;;;5093063;28;19992;-80
2022/10/26 08:21:13;;;;;;;;;;;16.20;99.90;;;;;;5092843;28;20321;-80
2022/10/26 08:23:39;;;;;;;;;;;16.30;99.90;;;;;;5092811;28;19998;-81
2022/10/26 08:26:05;;;;;;;;;;;16.40;99.90;;;;;;5092472;28;19919;-80
2022/10/26 08:28:31;;;;;;;;;;;16.50;99.90;;;;;;5074476;28;20003;-81
2022/10/26 08:30:56;;;;;;;;;;;16.70;99.90;;;;;;5093035;28;19912;-80
2022/10/26 08:33:23;;;;;;;;;;;16.90;99.90;;;;;;5092741;28;19942;-81
2022/10/26 08:35:48;;;;;;;;;;;17.20;99.90;;;;;;5074406;28;20286;-81
2022/10/26 08:38:14;;;;;;;;;;;17.40;99.90;;;;;;5092477;28;19912;-80
2022/10/26 08:40:41;;;;;;;;;;;17.60;99.90;;;;;;5092704;28;19908;-80
2022/10/26 08:43:09;;;;;;;;;;;17.60;99.90;;;;;;5092647;28;19916;-81
2022/10/26 08:45:39;;;;;;;;;;;17.60;99.90;;;;;;5092553;28;19959;-82
2022/10/26 08:48:10;;;;;;;;;;;17.60;99.90;;;;;;5074326;28;19919;-81
2022/10/26 08:50:42;;;;;;;;;;;17.60;99.90;;;;;;5074328;28;20015;-80
2022/10/26 08:53:24;;;;;;;;;;;17.60;99.90;;;;;;5092438;28;20353;-80
2022/10/26 08:55:52;;;;;;;;;;;17.60;99.90;;;;;;5074130;28;20377;-81
2022/10/26 08:58:21;;;;;;;;;;;17.60;99.90;;;;;;5074094;28;19908;-80
2022/10/26 09:00:48;;;;;;;;;;;17.60;99.90;;;;;;5074328;28;19915;-80
2022/10/26 09:03:14;;;;;;;;;;;17.60;99.90;;;;;;5092353;28;19953;-81
2022/10/26 09:06:00;;;;;;;;;;;17.70;99.90;;;;;;5092049;28;19915;-80
2022/10/26 09:08:26;;;;;;;;;;;17.80;99.90;;;;;;5073445;28;19923;-80
2022/10/26 09:10:54;;;;;;;;;;;17.90;99.90;;;;;;5092298;28;19913;-81
2022/10/26 09:13:26;;;;;;;;;;;17.90;99.90;;;;;;5092149;28;20369;-81
2022/10/26 09:15:54;;;;;;;;;;;18.00;99.90;;;;;;5092179;28;20299;-80
2022/10/26 09:18:23;;;;;;;;;;;17.90;99.90;;;;;;5073966;28;19997;-80
2022/10/26 09:20:54;;;;;;;;;;;17.80;99.90;;;;;;5092188;28;19955;-81
2022/10/26 09:23:19;;;;;;;;;;;17.80;99.90;;;;;;5074225;28;19915;-80
2022/10/26 09:25:48;;;;;;;;;;;17.90;99.90;;;;;;5091846;28;19909;-80
2022/10/26 09:28:16;;;;;;;;;;;17.90;99.90;;;;;;5067103;28;20447;-82
2022/10/26 09:30:45;;;;;;;;;;;18.00;99.90;;;;;;5039677;28;19948;-82
2022/10/26 09:33:14;;;;;;;;;;;18.10;99.90;;;;;;5053852;28;19909;-82
2022/10/26 09:35:43;;;;;;;;;;;18.30;99.90;;;;;;5035632;28;19909;-82
2022/10/26 09:38:17;;;;;;;;;;;18.40;99.90;;;;;;5053484;28;19909;-82
2022/10/26 09:40:51;;;;;;;;;;;18.60;99.90;;;;;;5057051;28;19923;-83
2022/10/26 09:43:19;;;;;;;;;;;18.60;99.90;;;;;;5076035;28;19919;-81
2022/10/26 09:45:46;;;;;;;;;;;18.70;99.90;;;;;;5093220;28;19961;-82
2022/10/26 09:48:24;;;;;;;;;;;18.80;99.90;;;;;;5093181;28;19915;-82
2022/10/26 09:50:51;;;;;;;;;;;18.90;99.90;;;;;;5093186;28;19912;-79
2022/10/26 09:53:16;;;;;;;;;;;19.00;99.90;;;;;;5074816;28;20003;-82
2022/10/26 09:55:44;;;;;;;;;;;19.00;99.90;;;;;;5092950;28;20015;-83
2022/10/26 09:58:13;;;;;;;;;;;19.10;99.90;;;;;;5077272;28;19955;-83
2022/10/26 10:00:39;;;;;;;;;;;19.20;99.90;;;;;;5096933;28;20007;-80
2022/10/26 10:03:16;;;;;;;;;;;19.30;99.90;;;;;;5096721;28;19908;-82
2022/10/26 10:05:42;;;;;;;;;;;19.50;99.90;;;;;;5078005;28;19974;-85
2022/10/26 10:08:16;;;;;;;;;;;19.60;99.90;;;;;;5096562;28;19916;-81
2022/10/26 10:10:54;;;;;;;;;;;19.70;99.90;;;;;;5096455;28;19916;-81
2022/10/26 10:13:20;;;;;;;;;;;19.80;99.90;;;;;;5095721;28;19908;-79
2022/10/26 10:16:12;;;;;;;;;;;19.80;99.90;;;;;;5077859;28;19908;-82
2022/10/26 10:18:38;;;;;;;;;;;20.00;99.90;;;;;;5091400;28;20264;-82
2022/10/26 10:21:04;;;;;;;;;;;20.10;99.90;;;;;;5078288;28;19946;-81
2022/10/26 10:23:31;;;;;;;;;;;20.20;99.90;;;;;;5077952;28;19909;-80
2022/10/26 10:26:17;;;;;;;;;;;20.40;99.90;;;;;;5096804;28;20003;-82
2022/10/26 10:28:54;;;;;;;;;;;20.40;99.90;;;;;;5111380;28;19974;-78
2022/10/26 10:31:21;;;;;;;;;;;20.50;99.90;;;;;;5095682;28;20007;-81
2022/10/26 10:33:48;;;;;;;;;;;20.80;99.90;;;;;;5077536;28;20046;-81
2022/10/26 10:36:21;;;;;;;;;;;21.00;99.90;;;;;;5094628;28;20006;-81
2022/10/26 10:38:48;;;;;;;;;;;21.70;99.90;;;;;;5095364;28;19914;-79
2022/10/26 10:41:28;;;;;;;;;;;23.80;99.90;;;;;;5095341;28;19908;-79
2022/10/26 10:44:13;;;;;;;;;;;26.20;99.90;;;;;;5077215;28;19909;-80
2022/10/26 10:46:39;;;;;;;;;;;28.40;99.90;;;;;;5093907;28;19919;-81
2022/10/26 10:49:06;;;;;;;;;;;30.00;99.90;;;;;;5094916;28;19908;-81
2022/10/26 10:51:38;;;;;;;;;;;31.10;99.90;;;;;;5076930;28;19912;-81
2022/10/26 10:54:04;;;;;;;;;;;31.50;96.60;;;;;;5076692;28;20425;-82
2022/10/26 10:56:39;;;;;;;;;;;32.00;96.20;;;;;;5094465;28;19954;-82
2022/10/26 10:59:23;;;;;;;;;;;32.10;92.40;;;;;;5066710;28;19913;-81
2022/10/26 11:01:51;;;;;;;;;;;32.70;91.50;;;;;;5054690;28;19909;-82
2022/10/26 11:04:33;;;;;;;;;;;33.30;90.20;;;;;;5054964;28;19967;-82
2022/10/26 11:06:59;;;;;;;;;;;33.40;85.70;;;;;;5036898;28;19917;-82
2022/10/26 11:09:27;;;;;;;;;;;33.60;83.60;;;;;;5054718;28;19996;-82
2022/10/26 11:11:52;;;;;;;;;;;33.30;81.00;;;;;;5037160;28;19952;-82
2022/10/26 11:14:29;;;;;;;;;;;32.60;80.60;;;;;;5054640;28;20372;-82
2022/10/26 11:16:57;;;;;;;;;;;32.70;80.70;;;;;;5054815;28;20352;-82
2022/10/26 11:19:26;;;;;;;;;;;33.00;82.40;;;;;;5036365;28;19909;-82
2022/10/26 11:21:53;;;;;;;;;;;34.00;79.70;;;;;;5054521;28;19916;-82
2022/10/26 11:24:19;;;;;;;;;;;34.30;75.60;;;;;;5036285;28;19944;-82
2022/10/26 11:26:47;;;;;;;;;;;34.30;76.00;;;;;;5054468;28;19939;-82
2022/10/26 11:29:29;;;;;;;;;;;34.10;73.60;;;;;;5036531;28;20007;-82
2022/10/26 11:32:10;;;;;;;;;;;34.50;72.00;;;;;;5054586;28;20043;-84
2022/10/26 11:34:42;;;;;;;;;;;34.10;70.20;;;;;;5054200;28;19909;-82
2022/10/26 11:37:14;;;;;;;;;;;34.20;70.90;;;;;;5053639;28;20311;-82
2022/10/26 11:39:42;;;;;;;;;;;34.10;73.90;;;;;;5036183;28;19959;-82
2022/10/26 11:42:13;;;;;;;;;;;33.70;69.90;;;;;;5054431;28;20295;-81
2022/10/26 11:44:41;;;;;;;;;;;32.80;69.40;;;;;;5054139;28;19915;-81
2022/10/26 11:47:10;;;;;;;;;;;32.50;73.90;;;;;;5036538;28;19912;-82
2022/10/26 11:49:42;;;;;;;;;;;31.80;73.90;;;;;;5036653;28;20364;-81
2022/10/26 11:52:16;;;;;;;;;;;31.70;73.10;;;;;;5053605;28;19912;-81
2022/10/26 11:54:51;;;;;;;;;;;32.60;74.00;;;;;;5054460;28;19908;-81
2022/10/26 11:57:16;;;;;;;;;;;32.50;70.30;;;;;;5053478;28;19909;-81
2022/10/26 11:59:45;;;;;;;;;;;32.20;72.10;;;;;;5053783;28;19919;-81
2022/10/26 12:02:14;;;;;;;;;;;32.10;72.40;;;;;;5053743;28;19956;-82
2022/10/26 12:04:41;;;;;;;;;;;32.00;71.50;;;;;;5034382;28;20353;-83
2022/10/26 12:07:10;;;;;;;;;;;31.70;73.50;;;;;;5076907;28;19919;-83
2022/10/26 12:09:37;;;;;;;;;;;31.40;75.20;;;;;;5080262;28;19934;-83
2022/10/26 12:12:08;;;;;;;;;;;31.30;76.80;;;;;;5073357;28;19912;-83
2022/10/26 12:14:52;;;;;;;;;;;30.90;75.70;;;;;;5074401;28;19912;-83
2022/10/26 12:17:25;;;;;;;;;;;30.70;75.80;;;;;;5074461;28;19909;-83
2022/10/26 12:20:05;;;;;;;;;;;30.70;76.30;;;;;;5072879;28;19908;-85
2022/10/26 12:22:35;;;;;;;;;;;30.00;76.20;;;;;;5055729;28;19908;-85
2022/10/26 12:25:13;;;;;;;;;;;28.60;80.70;;;;;;5073953;28;19951;-82
2022/10/26 12:27:38;;;;;;;;;;;28.00;85.50;;;;;;5073086;28;20356;-82
2022/10/26 12:30:21;;;;;;;;;;;27.60;87.30;;;;;;5054934;28;19924;-82
2022/10/26 12:32:47;;;;;;;;;;;27.50;90.60;;;;;;5072723;28;19912;-82
2022/10/26 12:35:27;;;;;;;;;;;27.80;92.00;;;;;;5069561;28;20299;-84
2022/10/26 12:37:53;;;;;;;;;;;28.90;91.70;;;;;;5083194;28;19995;-83
2022/10/26 12:40:38;;;;;;;;;;;29.30;89.30;;;;;;5074439;28;20355;-83
2022/10/26 12:43:13;;;;;;;;;;;29.50;86.10;;;;;;5074714;28;19951;-85
2022/10/26 12:45:42;;;;;;;;;;;29.70;86.00;;;;;;5067004;28;19963;-84
2022/10/26 12:48:20;;;;;;;;;;;29.80;86.50;;;;;;5078743;28;19909;-83
2022/10/26 12:50:46;;;;;;;;;;;30.20;87.40;;;;;;5059548;28;19912;-83
2022/10/26 12:53:13;;;;;;;;;;;29.90;83.90;;;;;;5072521;28;20000;-83
2022/10/26 12:55:48;;;;;;;;;;;29.60;83.20;;;;;;5071698;28;19909;-84
2022/10/26 12:58:16;;;;;;;;;;;29.30;82.90;;;;;;5054363;28;19995;-83
2022/10/26 13:00:50;;;;;;;;;;;29.00;82.60;;;;;;5075863;28;19919;-82
2022/10/26 13:03:24;;;;;;;;;;;28.60;84.60;;;;;;5074710;28;19915;-83
2022/10/26 13:06:08;;;;;;;;;;;28.50;86.40;;;;;;5071524;28;19909;-82
2022/10/26 13:08:41;;;;;;;;;;;28.00;85.90;;;;;;5035761;28;19921;-82
2022/10/26 13:11:27;;;;;;;;;;;27.30;87.90;;;;;;5035432;28;20440;-83
2022/10/26 13:13:57;;;;;;;;;;;27.10;91.20;;;;;;5034841;28;20317;-82
2022/10/26 13:16:25;;;;;;;;;;;26.80;91.10;;;;;;5036334;28;19916;-83
2022/10/26 13:18:50;;;;;;;;;;;26.80;90.20;;;;;;5053357;28;20272;-83
2022/10/26 13:21:17;;;;;;;;;;;26.80;90.80;;;;;;5052584;28;19931;-83
2022/10/26 13:23:51;;;;;;;;;;;26.60;91.10;;;;;;5034679;28;19913;-83
2022/10/26 13:26:18;;;;;;;;;;;26.50;92.30;;;;;;5052706;28;19909;-82
2022/10/26 13:28:43;;;;;;;;;;;26.40;92.30;;;;;;5034960;28;19916;-82
2022/10/26 13:31:32;;;;;;;;;;;26.10;91.90;;;;;;5033401;28;19921;-85
2022/10/26 13:34:14;;;;;;;;;;;25.80;93.30;;;;;;5080411;28;19908;-83
2022/10/26 13:36:41;;;;;;;;;;;25.60;94.50;;;;;;5071652;28;19909;-81
2022/10/26 13:39:36;;;;;;;;;;;25.50;95.70;;;;;;5038203;28;19909;-81
2022/10/26 13:42:02;;;;;;;;;;;25.40;95.70;;;;;;5024594;28;19916;-80
2022/10/26 13:44:46;;;;;;;;;;;25.40;96.00;;;;;;5037822;28;19931;-80
2022/10/26 13:47:24;;;;;;;;;;;25.20;95.70;;;;;;5053951;28;20257;-80
2022/10/26 13:49:51;;;;;;;;;;;25.20;95.30;;;;;;5037677;28;19909;-80
2022/10/26 13:52:20;;;;;;;;;;;25.30;95.20;;;;;;5055451;28;20315;-80
2022/10/26 13:54:52;;;;;;;;;;;25.30;94.90;;;;;;5055538;28;20265;-80
2022/10/26 13:57:26;;;;;;;;;;;25.60;96.20;;;;;;5055193;28;19909;-80
2022/10/26 13:59:52;;;;;;;;;;;25.90;96.30;;;;;;5037464;28;20015;-80
2022/10/26 14:02:22;;;;;;;;;;;26.10;96.30;;;;;;5055007;28;19916;-81
2022/10/26 14:05:08;;;;;;;;;;;26.30;95.40;;;;;;5037361;28;19912;-81
2022/10/26 14:07:42;;;;;;;;;;;26.20;94.70;;;;;;5054984;28;20390;-81
2022/10/26 14:10:22;;;;;;;;;;;26.40;94.90;;;;;;5055549;28;20340;-83
2022/10/26 14:12:47;;;;;;;;;;;26.30;94.90;;;;;;5037779;28;19913;-81
2022/10/26 14:15:13;;;;;;;;;;;26.20;94.40;;;;;;5037543;28;19909;-80
2022/10/26 14:17:38;;;;;;;;;;;26.00;95.10;;;;;;5055383;28;20332;-81
2022/10/26 14:20:04;;;;;;;;;;;25.80;95.50;;;;;;5055462;28;20364;-81
2022/10/26 14:22:30;;;;;;;;;;;25.70;96.40;;;;;;5055118;28;20431;-80
2022/10/26 14:24:57;;;;;;;;;;;25.70;97.10;;;;;;5037330;28;19909;-81
2022/10/26 14:27:23;;;;;;;;;;;25.60;98.70;;;;;;5055081;28;20372;-81